Time;durP1;ratioP1;P1;durP2;ratioP2;P2;SDS_P1;SDS_P2;PMS_P1;PMS_P2;Temp;Humidity;BMP_temperature;BMP_pressure;BME280_temperature;BME280_humidity;BME280_pressure;Samples;Min_cycle;Max_cycle;Signal;HPM_P1;HPM_P2
2023/06/17 00:06:39;;;;;;;3.10;2.70;;;;;;;20.66;63.27;101347.25;20956425;28;20123;-65
2023/06/17 00:16:43;;;;;;;3.70;3.00;;;;;;;20.63;63.28;101328.59;20948847;28;20094;-66
2023/06/17 00:26:46;;;;;;;3.25;2.95;;;;;;;20.61;63.21;101333.28;20960996;28;20492;-65
2023/06/17 00:36:49;;;;;;;3.47;3.10;;;;;;;20.61;63.27;101329.75;20950728;28;20519;-65
2023/06/17 00:46:51;;;;;;;3.72;3.30;;;;;;;20.59;63.41;101319.06;20972146;28;20052;-66
2023/06/17 00:56:53;;;;;;;3.35;3.05;;;;;;;20.59;63.33;101319.06;20957365;28;20049;-65
2023/06/17 01:07:00;;;;;;;3.35;2.90;;;;;;;20.57;63.66;101313.81;20954473;28;20048;-65
2023/06/17 01:17:04;;;;;;;3.55;3.25;;;;;;;20.55;63.87;101294.16;20960181;28;20510;-65
2023/06/17 01:27:08;;;;;;;3.95;3.42;;;;;;;20.56;63.84;101305.81;20938867;28;20475;-65
2023/06/17 01:37:11;;;;;;;3.60;3.30;;;;;;;20.54;64.18;101291.59;20946594;28;20659;-65
2023/06/17 01:47:13;;;;;;;3.42;3.08;;;;;;;20.54;64.48;101280.78;20936458;28;20132;-65
2023/06/17 01:57:15;;;;;;;3.38;3.08;;;;;;;20.53;64.73;101284.47;20955423;28;20695;-65
2023/06/17 02:07:17;;;;;;;3.22;2.95;;;;;;;20.51;65.08;101273.78;20956692;28;20048;-65
2023/06/17 02:17:19;;;;;;;5.07;4.13;;;;;;;20.50;65.81;101277.50;20957514;28;20045;-65
2023/06/17 02:27:21;;;;;;;4.13;3.72;;;;;;;20.50;66.39;101271.25;20924966;28;20076;-65
2023/06/17 02:37:23;;;;;;;4.13;3.72;;;;;;;20.48;66.51;101260.56;20931474;28;20094;-65
2023/06/17 02:47:25;;;;;;;4.47;3.92;;;;;;;20.48;67.00;101274.09;20923093;28;20051;-65
2023/06/17 02:57:31;;;;;;;5.10;4.18;;;;;;;20.47;67.18;101260.72;20930495;28;20044;-65
2023/06/17 03:07:36;;;;;;;5.30;4.38;;;;;;;20.46;67.73;101243.63;20926347;28;20044;-65
2023/06/17 03:17:38;;;;;;;5.30;4.57;;;;;;;20.47;67.71;101255.31;20929559;28;20409;-65
2023/06/17 03:27:40;;;;;;;4.50;4.10;;;;;;;20.43;67.95;101250.19;20936928;28;20049;-66
2023/06/17 03:37:42;;;;;;;4.40;4.00;;;;;;;20.40;68.09;101244.22;20910411;28;20095;-65
2023/06/17 03:47:43;;;;;;;4.95;4.30;;;;;;;20.39;68.33;101256.91;20947361;28;21236;-65
2023/06/17 03:57:45;;;;;;;4.78;4.28;;;;;;;20.36;69.09;101257.19;20972302;28;20072;-65
2023/06/17 04:07:48;;;;;;;4.97;3.90;;;;;;;20.37;70.18;101261.59;20956375;28;20051;-65
2023/06/17 04:17:51;;;;;;;5.80;4.85;;;;;;;20.37;70.72;101256.19;20990298;28;20075;-66
2023/06/17 04:27:53;;;;;;;4.68;4.28;;;;;;;20.37;71.21;101253.47;20976783;28;20098;-65
2023/06/17 04:37:56;;;;;;;5.25;4.75;;;;;;;20.34;71.29;101256.47;20998681;28;20118;-65
2023/06/17 04:47:58;;;;;;;5.55;4.80;;;;;;;20.31;71.63;101237.81;20970650;28;20465;-66
2023/06/17 04:58:03;;;;;;;4.60;4.20;;;;;;;20.35;71.72;101249.22;20914806;28;20091;-65
2023/06/17 05:08:15;;;;;;;6.15;5.50;;;;;;;20.35;72.08;101255.47;20938315;28;20055;-65
2023/06/17 05:18:16;;;;;;;7.05;5.40;;;;;;;20.37;72.63;101268.84;20910846;28;20052;-65
2023/06/17 05:28:19;;;;;;;5.50;5.00;;;;;;;20.38;72.56;101265.13;20911813;28;20037;-65
2023/06/17 05:38:21;;;;;;;5.72;4.60;;;;;;;20.40;73.02;101272.13;20917869;28;20040;-65
2023/06/17 05:48:23;;;;;;;5.30;4.60;;;;;;;20.44;73.61;101288.91;20943733;28;20394;-65
2023/06/17 05:58:27;;;;;;;5.83;5.27;;;;;;;20.44;73.41;101291.59;20972027;28;20520;-65
2023/06/17 06:08:35;;;;;;;6.82;4.97;;;;;;;20.45;73.77;101296.00;20970449;28;20305;-65
2023/06/17 06:18:36;;;;;;;5.60;4.97;;;;;;;20.46;73.96;101299.59;21033203;28;20066;-65
2023/06/17 06:28:38;;;;;;;4.95;4.50;;;;;;;20.46;74.54;101316.66;20977570;28;20646;-65
2023/06/17 06:38:40;;;;;;;5.32;4.80;;;;;;;20.45;74.35;101323.06;20968568;28;20051;-65
2023/06/17 06:48:42;;;;;;;6.22;4.90;;;;;;;20.45;74.21;101319.50;20967531;28;20127;-65
2023/06/17 06:58:46;;;;;;;5.63;4.97;;;;;;;20.45;73.95;101324.91;20967620;28;20109;-65
2023/06/17 07:08:48;;;;;;;5.63;5.10;;;;;;;20.43;72.58;101322.34;20951706;28;20411;-66
2023/06/17 07:18:50;;;;;;;6.10;5.50;;;;;;;20.41;73.38;101316.22;20934307;28;20075;-66
2023/06/17 07:28:52;;;;;;;5.65;5.10;;;;;;;20.41;73.54;101314.38;20937572;28;20515;-66
2023/06/17 07:38:55;;;;;;;6.05;5.45;;;;;;;20.44;74.46;101310.53;20948987;28;20135;-66
2023/06/17 07:48:57;;;;;;;6.15;5.65;;;;;;;20.41;74.90;101306.28;20982990;28;20428;-66
2023/06/17 07:58:59;;;;;;;5.80;5.20;;;;;;;20.52;74.37;101312.53;20982649;28;20049;-66
2023/06/17 08:09:02;;;;;;;5.10;4.60;;;;;;;20.56;75.04;101311.25;21002163;28;20089;-66
2023/06/17 08:19:04;;;;;;;6.45;5.55;;;;;;;20.62;74.66;101301.69;21047563;28;20539;-66
2023/06/17 08:29:06;;;;;;;6.07;5.40;;;;;;;20.71;75.52;101298.97;21043054;28;20063;-66
2023/06/17 08:39:10;;;;;;;5.57;4.80;;;;;;;20.79;74.08;101292.03;20975436;28;20057;-66
2023/06/17 08:49:13;;;;;;;5.40;4.90;;;;;;;20.89;74.75;101294.69;20924474;28;20055;-66
2023/06/17 08:59:14;;;;;;;6.18;5.10;;;;;;;20.97;75.03;101287.53;20955542;28;20056;-66
2023/06/17 09:09:16;;;;;;;4.95;4.45;;;;;;;21.05;75.38;101291.38;21036652;28;20056;-66
2023/06/17 09:19:18;;;;;;;5.50;5.00;;;;;;;21.09;75.40;101295.47;20940287;28;20145;-66
2023/06/17 09:29:21;;;;;;;5.10;4.60;;;;;;;21.13;75.85;101299.59;20956429;28;20123;-66
2023/06/17 09:39:29;;;;;;;4.80;4.30;;;;;;;21.15;76.23;101290.34;20951569;28;20051;-66
2023/06/17 09:49:32;;;;;;;4.90;4.40;;;;;;;21.19;76.80;101290.03;20969260;28;20264;-66
2023/06/17 09:59:34;;;;;;;5.00;4.50;;;;;;;21.20;76.68;101280.91;20909971;28;20048;-66
2023/06/17 10:09:36;;;;;;;6.05;4.38;;;;;;;21.22;76.12;101277.06;20978497;28;20056;-65
2023/06/17 10:19:39;;;;;;;4.80;4.40;;;;;;;21.24;75.59;101271.47;20922154;28;20060;-66
2023/06/17 10:29:44;;;;;;;6.33;4.50;;;;;;;21.25;75.22;101271.34;20976962;28;20053;-65
2023/06/17 10:39:52;;;;;;;5.32;4.85;;;;;;;21.25;74.59;101271.34;20949294;28;20080;-65
2023/06/17 10:49:53;;;;;;;5.13;4.60;;;;;;;21.26;74.17;101267.63;20945197;28;20048;-65
2023/06/17 10:59:58;;;;;;;4.38;4.07;;;;;;;21.28;74.34;101262.06;20988574;28;20126;-65
2023/06/17 11:10:00;;;;;;;4.82;4.20;;;;;;;21.28;74.31;101252.09;20971784;28;20052;-65
2023/06/17 11:20:05;;;;;;;4.57;4.10;;;;;;;21.30;72.94;101250.09;20965118;28;20080;-65
2023/06/17 11:30:08;;;;;;;5.80;4.50;;;;;;;21.29;72.80;101237.53;20950122;28;20052;-65
2023/06/17 11:40:11;;;;;;;5.80;5.20;;;;;;;21.30;72.31;101231.13;20940519;28;20581;-65
2023/06/17 11:50:14;;;;;;;5.68;4.85;;;;;;;21.28;71.80;101222.31;20955502;28;20045;-65
2023/06/17 12:00:15;;;;;;;5.32;4.30;;;;;;;21.30;71.88;101208.59;20969541;28;20112;-65
2023/06/17 12:10:17;;;;;;;5.03;4.53;;;;;;;21.26;71.56;101188.25;20940942;28;20068;-65
2023/06/17 12:20:20;;;;;;;4.78;4.35;;;;;;;21.33;71.58;101196.63;20955523;28;20049;-66
2023/06/17 12:30:21;;;;;;;4.60;4.20;;;;;;;21.34;71.14;101185.63;20958509;28;20076;-65
2023/06/17 12:40:23;;;;;;;4.85;4.20;;;;;;;21.36;70.74;101185.47;20957661;28;20040;-65
2023/06/17 12:50:25;;;;;;;4.38;3.97;;;;;;;21.22;71.03;101162.47;20943777;28;20059;-65
2023/06/17 13:00:27;;;;;;;5.10;4.53;;;;;;;21.36;70.20;101172.78;20956697;28;20051;-65
2023/06/17 13:10:28;;;;;;;4.95;4.30;;;;;;;21.36;70.26;101174.66;20956029;28;20480;-65
2023/06/17 13:20:30;;;;;;;4.72;4.07;;;;;;;21.34;69.78;101157.72;20957199;28;20049;-66
2023/06/17 13:30:33;;;;;;;4.30;3.90;;;;;;;21.31;68.84;101153.44;20940061;28;20060;-65
2023/06/17 13:40:34;;;;;;;4.00;3.70;;;;;;;21.30;68.36;101135.47;20966948;28;20072;-65
2023/06/17 13:50:36;;;;;;;4.15;3.75;;;;;;;21.28;68.27;101135.66;20919389;28;20056;-65
2023/06/17 14:00:38;;;;;;;4.15;3.70;;;;;;;21.27;68.32;101131.25;20935835;28;20044;-65
2023/06/17 14:10:39;;;;;;;4.25;3.85;;;;;;;21.25;68.11;101122.44;20935661;28;20040;-65
2023/06/17 14:20:41;;;;;;;4.25;3.85;;;;;;;21.24;68.08;101123.44;20940187;28;20049;-65
2023/06/17 14:30:43;;;;;;;4.07;3.67;;;;;;;21.22;67.98;101114.59;20946481;28;20068;-65
2023/06/17 14:40:44;;;;;;;4.40;4.00;;;;;;;21.08;68.75;101088.91;20944546;28;20076;-65
2023/06/17 14:50:46;;;;;;;3.65;3.17;;;;;;;21.23;67.97;101108.19;20954818;28;20147;-65
2023/06/17 15:00:48;;;;;;;4.05;3.72;;;;;;;21.15;68.52;101097.25;20980193;28;20461;-65
2023/06/17 15:10:50;;;;;;;4.00;3.60;;;;;;;21.24;70.08;101103.63;20932656;28;20045;-65
2023/06/17 15:20:51;;;;;;;4.78;3.85;;;;;;;21.26;70.29;101090.78;20948136;28;20072;-66
2023/06/17 15:30:53;;;;;;;4.43;4.03;;;;;;;21.27;71.46;101087.91;20929914;28;20049;-66
2023/06/17 15:40:54;;;;;;;4.18;3.83;;;;;;;21.32;71.42;101089.31;20914199;28;20072;-66
2023/06/17 15:50:56;;;;;;;6.80;4.60;;;;;;;21.30;71.81;101087.59;20943796;28;20128;-64
2023/06/17 16:00:58;;;;;;;5.28;3.95;;;;;;;21.32;72.27;101086.59;20924236;28;20469;-75
2023/06/17 16:11:00;;;;;;;5.55;4.45;;;;;;;21.41;72.19;101100.03;20946027;28;20046;-75
2023/06/17 16:21:01;;;;;;;10.07;7.40;;;;;;;21.45;72.86;101100.59;20955544;28;20500;-67
2023/06/17 16:31:03;;;;;;;18.27;9.15;;;;;;;21.52;75.30;101098.13;20912634;28;20044;-78
2023/06/17 16:41:08;;;;;;;13.32;8.15;;;;;;;21.57;76.02;101099.34;20921159;28;20053;-75
2023/06/17 16:51:10;;;;;;;10.73;6.80;;;;;;;21.57;76.29;101093.09;20958098;28;20040;-76
2023/06/17 17:01:11;;;;;;;9.32;6.28;;;;;;;21.56;76.32;101092.22;20992298;28;20459;-76
2023/06/17 17:11:13;;;;;;;9.02;6.10;;;;;;;21.54;76.25;101094.25;20971578;28;20052;-81
2023/06/17 17:21:15;;;;;;;9.57;5.63;;;;;;;21.53;76.63;101102.53;20959521;28;20083;-70
2023/06/17 17:31:16;;;;;;;8.68;6.00;;;;;;;21.55;76.83;101105.94;20957876;28;20048;-69
2023/06/17 17:41:18;;;;;;;7.88;5.70;;;;;;;21.57;77.07;101117.47;20960149;28;20127;-70
2023/06/17 17:51:20;;;;;;;8.80;5.72;;;;;;;21.56;76.45;101124.72;20957142;28;20123;-70
2023/06/17 18:01:22;;;;;;;8.90;5.95;;;;;;;21.55;76.81;101114.91;20930036;28;20504;-70
2023/06/17 18:11:23;;;;;;;7.45;5.63;;;;;;;21.52;76.19;101128.75;20967322;28;20454;-70
2023/06/17 18:21:28;;;;;;;7.20;5.40;;;;;;;21.47;76.16;101131.09;20959245;28;20091;-70
2023/06/17 18:31:30;;;;;;;6.00;5.00;;;;;;;21.42;75.34;101138.81;20981612;28;20080;-70
2023/06/17 18:41:31;;;;;;;7.30;5.38;;;;;;;21.37;74.65;101135.72;20944782;28;20045;-70
2023/06/17 18:51:34;;;;;;;6.50;5.25;;;;;;;21.34;74.83;101155.00;20986006;28;20070;-70
2023/06/17 19:01:37;;;;;;;7.97;5.57;;;;;;;21.30;74.62;101152.59;20978939;28;20136;-70
2023/06/17 19:11:39;;;;;;;6.97;5.15;;;;;;;21.30;75.30;101152.59;20962289;28;20413;-70
2023/06/17 19:21:41;;;;;;;6.88;5.53;;;;;;;21.29;75.11;101175.28;20979400;28;20076;-70
2023/06/17 19:31:43;;;;;;;6.50;5.25;;;;;;;21.28;75.43;101165.44;20929598;28;20497;-70
2023/06/17 19:41:44;;;;;;;7.28;5.75;;;;;;;21.26;75.39;101172.88;20966050;28;20053;-70
2023/06/17 19:51:47;;;;;;;6.00;5.40;;;;;;;21.25;75.04;101189.25;20960133;28;20056;-70
2023/06/17 20:01:49;;;;;;;6.30;5.25;;;;;;;21.24;74.98;101195.66;20959237;28;20065;-70
2023/06/17 20:11:51;;;;;;;5.28;4.78;;;;;;;21.22;74.92;101192.25;20960708;28;20052;-70
2023/06/17 20:21:53;;;;;;;6.20;5.60;;;;;;;21.21;75.10;101191.44;20975552;28;20072;-70
2023/06/17 20:31:55;;;;;;;7.68;6.28;;;;;;;21.19;74.93;101189.84;20978438;28;20485;-70
2023/06/17 20:41:57;;;;;;;6.75;5.88;;;;;;;21.16;74.85;101199.13;20928590;28;20551;-70
2023/06/17 20:51:59;;;;;;;6.30;5.70;;;;;;;21.15;74.88;101202.84;20966913;28;20044;-70
2023/06/17 21:02:01;;;;;;;6.50;5.80;;;;;;;21.05;74.46;101174.97;20971254;28;20408;-70
2023/06/17 21:12:03;;;;;;;6.72;5.85;;;;;;;21.10;74.28;101181.66;20957392;28;20094;-70
2023/06/17 21:22:05;;;;;;;6.95;5.70;;;;;;;21.09;73.89;101188.06;20955742;28;20056;-70
2023/06/17 21:32:10;;;;;;;6.38;5.60;;;;;;;21.03;73.65;101172.44;20942857;28;20049;-70
2023/06/17 21:42:11;;;;;;;6.43;5.82;;;;;;;21.03;73.22;101179.69;20950962;28;20348;-70
2023/06/17 21:52:13;;;;;;;6.60;5.82;;;;;;;20.97;73.05;101170.28;20964459;28;20082;-70
2023/06/17 22:02:14;;;;;;;6.50;5.40;;;;;;;20.95;72.96;101158.78;20973281;28;20041;-70
2023/06/17 22:12:16;;;;;;;6.55;5.80;;;;;;;20.95;73.04;101167.75;20945508;28;20056;-70
2023/06/17 22:22:18;;;;;;;6.65;5.95;;;;;;;20.94;72.94;101160.63;20967253;28;20090;-70
2023/06/17 22:32:19;;;;;;;6.75;6.15;;;;;;;20.89;72.84;101149.41;20973512;28;20120;-70
2023/06/17 22:42:21;;;;;;;6.75;5.95;;;;;;;20.90;72.75;101161.94;20961976;28;20524;-70
2023/06/17 22:52:23;;;;;;;6.13;5.35;;;;;;;20.90;72.64;101158.38;20958618;28;20045;-70
2023/06/17 23:02:24;;;;;;;6.60;5.90;;;;;;;20.87;72.51;101170.38;20957657;28;20094;-70
2023/06/17 23:12:26;;;;;;;6.72;6.03;;;;;;;20.86;72.35;101171.38;20969183;28;20767;-70
2023/06/17 23:22:28;;;;;;;6.70;6.05;;;;;;;20.85;72.33;101170.50;20955381;28;20131;-70
2023/06/17 23:32:30;;;;;;;6.70;6.00;;;;;;;20.83;72.19;101158.13;20972070;28;20048;-70
2023/06/17 23:42:31;;;;;;;6.88;5.78;;;;;;;20.83;72.21;101160.84;20934717;28;20044;-70
2023/06/17 23:52:33;;;;;;;6.80;6.10;;;;;;;20.79;72.14;101154.88;20935123;28;20049;-70
